»·PEaware :: N632CP KOLM-KPDX

N632CP :: KOLM-KPDX

FLIGHT INFORMATION

Flight Status: Arrived
Operator: Privately registered:
United States
More flights under this callsign
Pilot: William K. (19718)
Aircraft: CESSNA 172 SKYHAWK
(C172)
More flights by this aircraft type
Origin: KOLM Olympia
United States
Destination: KPDX Portland Intl
United States
More flights between these airports :: More routes between these airports
Route: +YELM4 OLM V287 BTG
File this flight plan on PilotEdge
Remarks: Sample flight plan
Altitude:
(Current/Filed)
9,000ft
Speed:
(Current/Filed)
115kts
Departed: 15-Jul-18 03:22 PM
Arrived: 15-Jul-18 04:11 PM
Distance/Time
Traveled:
84nm/0:49
Distance/Time
To Go:
Arrived

Flight Plot

Page will automatically refresh every two minutes.

Flight plan parsing failed; only flown route is shown


Map Options




Map Legend


Flown Route
Filed Route
Departure Airport
Arrival Airport
Navaid (VOR, NDB)
Fix

Horizontal Profiles

Position Reports

Time Latitude Longitude Heading Altitude Ground
Speed
15-Jul-18 14:59 46.975741 -122.898847 281 212ft 0kts
15-Jul-18 15:00 46.975741 -122.898847 281 212ft 0kts
15-Jul-18 15:01 46.975741 -122.898847 281 212ft 0kts
15-Jul-18 15:02 46.975741 -122.898847 281 212ft 0kts
15-Jul-18 15:03 46.975741 -122.898847 281 212ft 0kts
15-Jul-18 15:04 46.975762 -122.898994 281 212ft 3kts
15-Jul-18 15:05 46.975790 -122.899181 281 212ft 0kts
15-Jul-18 15:06 46.975790 -122.899181 281 212ft 0kts
15-Jul-18 15:07 46.975790 -122.899181 281 212ft 0kts
15-Jul-18 15:08 46.975790 -122.899181 281 212ft 0kts
15-Jul-18 15:09 46.975790 -122.899181 281 212ft 0kts
15-Jul-18 15:10 46.975790 -122.899181 281 212ft 0kts
15-Jul-18 15:11 46.975597 -122.899564 162 212ft 8kts
15-Jul-18 15:12 46.971908 -122.895419 143 212ft 12kts
15-Jul-18 15:13 46.970029 -122.893251 145 212ft 0kts
15-Jul-18 15:14 46.970082 -122.893165 318 212ft 5kts
15-Jul-18 15:15 46.971644 -122.897755 225 212ft 13kts
15-Jul-18 15:16 46.970735 -122.899191 226 212ft 12kts
15-Jul-18 15:17 46.970656 -122.899314 227 212ft 0kts
15-Jul-18 15:18 46.965169 -122.901661 191 212ft 39kts
15-Jul-18 15:19 46.961775 -122.905039 192 212ft 9kts
15-Jul-18 15:20 46.961444 -122.905523 276 212ft 0kts
15-Jul-18 15:21 46.961444 -122.905523 276 212ft 0kts
15-Jul-18 15:22 46.962662 -122.906437 8 212ft 35kts
15-Jul-18 15:23 46.985247 -122.901381 16 854ft 104kts
15-Jul-18 15:24 46.995898 -122.861188 78 1446ft 113kts
15-Jul-18 15:25 47.000916 -122.817187 92 2200ft 106kts
15-Jul-18 15:26 46.977257 -122.811060 205 2974ft 106kts
15-Jul-18 15:27 46.950628 -122.830356 205 3777ft 106kts
15-Jul-18 15:28 46.924326 -122.849438 205 4575ft 105kts
15-Jul-18 15:29 46.898409 -122.868248 205 5371ft 104kts
15-Jul-18 15:30 46.872276 -122.878976 168 6162ft 100kts
15-Jul-18 15:31 46.845341 -122.871903 168 6957ft 97kts
15-Jul-18 15:32 46.819032 -122.864998 168 7752ft 95kts
15-Jul-18 15:33 46.793620 -122.858435 169 8546ft 91kts
15-Jul-18 15:34 46.767412 -122.852252 169 8996ft 117kts
15-Jul-18 15:35 46.733369 -122.844342 170 8990ft 126kts
15-Jul-18 15:36 46.698472 -122.836273 170 8990ft 127kts
15-Jul-18 15:37 46.663415 -122.828195 170 8990ft 127kts
15-Jul-18 15:38 46.628536 -122.820187 170 8990ft 127kts
15-Jul-18 15:39 46.593202 -122.812103 170 8936ft 129kts
15-Jul-18 15:40 46.559787 -122.804485 170 8935ft 127kts
15-Jul-18 15:41 46.527761 -122.797209 170 8935ft 127kts
15-Jul-18 15:42 46.492824 -122.789299 170 8935ft 127kts
15-Jul-18 15:43 46.457742 -122.781384 170 8935ft 127kts
15-Jul-18 15:44 46.428956 -122.774912 170 8936ft 127kts
15-Jul-18 15:45 46.393919 -122.767060 170 8936ft 127kts
15-Jul-18 15:46 46.358861 -122.759232 170 8936ft 127kts
15-Jul-18 15:47 46.323862 -122.751446 170 8936ft 127kts
15-Jul-18 15:48 46.289181 -122.743760 170 8990ft 126kts
15-Jul-18 15:49 46.254340 -122.736066 170 8991ft 127kts
15-Jul-18 15:50 46.219200 -122.728335 170 8991ft 127kts
15-Jul-18 15:51 46.184193 -122.720661 170 8991ft 127kts
15-Jul-18 15:52 46.149110 -122.712999 170 8991ft 127kts
15-Jul-18 15:53 46.114325 -122.703804 165 8991ft 127kts
15-Jul-18 15:54 46.079891 -122.691908 165 8991ft 127kts
15-Jul-18 15:55 46.045426 -122.680003 165 8991ft 127kts
15-Jul-18 15:56 46.010854 -122.668092 165 8991ft 127kts
15-Jul-18 15:57 45.976385 -122.656247 165 8991ft 127kts
15-Jul-18 15:58 45.941930 -122.644438 165 8991ft 127kts
15-Jul-18 15:59 45.907433 -122.632644 165 8991ft 127kts
15-Jul-18 16:00 45.872559 -122.621558 169 8595ft 138kts
15-Jul-18 16:01 45.834368 -122.614384 172 7795ft 139kts
15-Jul-18 16:02 45.796612 -122.607330 170 6991ft 134kts
15-Jul-18 16:03 45.759979 -122.598844 170 6189ft 133kts
15-Jul-18 16:04 45.723579 -122.590424 170 5388ft 133kts
15-Jul-18 16:05 45.687224 -122.582047 170 4587ft 133kts
15-Jul-18 16:06 45.651245 -122.571661 146 3782ft 132kts
15-Jul-18 16:07 45.627023 -122.537584 129 2576ft 120kts
15-Jul-18 16:08 45.603674 -122.510996 164 1862ft 95kts
15-Jul-18 16:09 45.579866 -122.507641 188 1405ft 85kts
15-Jul-18 16:10 45.570398 -122.529017 280 804ft 74kts
15-Jul-18 16:11 45.577728 -122.551983 300 306ft 62kts
15-Jul-18 16:12 45.585851 -122.572696 299 27ft 38kts
15-Jul-18 16:13 45.586246 -122.576421 205 27ft 0kts
15-Jul-18 16:14 45.584831 -122.576582 159 27ft 8kts
15-Jul-18 16:15 45.584573 -122.576572 193 27ft 0kts

Navigation Log

Ident Type
Flight plan parsing failed, navigation log unavailable